createdAt,value
2019-03-03T00:01:18.510Z,94239.87
2019-03-03T00:03:47.198Z,94244.64
2019-03-03T00:06:15.971Z,94241.92
2019-03-03T00:08:44.769Z,94228.15
2019-03-03T00:11:13.664Z,94227.52
2019-03-03T00:13:42.347Z,94232.95
2019-03-03T00:16:11.131Z,94239.97
2019-03-03T00:18:39.925Z,94235.05
2019-03-03T00:21:08.739Z,94230.56
2019-03-03T00:23:37.532Z,94236.03
2019-03-03T00:26:06.289Z,94239.15
2019-03-03T00:28:34.972Z,94242.36
2019-03-03T00:31:03.760Z,94245.77
2019-03-03T00:33:32.446Z,94235.28
2019-03-03T00:36:01.235Z,94236.10
2019-03-03T00:38:31.564Z,94230.59
2019-03-03T00:41:07.821Z,94224.70
2019-03-03T00:43:38.055Z,94234.62
2019-03-03T00:46:14.424Z,94221.27
2019-03-03T00:49:00.715Z,94229.57
2019-03-03T00:51:31.042Z,94226.09
2019-03-03T00:54:10.065Z,94235.86
2019-03-03T00:56:40.396Z,94229.48
2019-03-03T00:59:13.583Z,94231.40
2019-03-03T01:01:43.919Z,94232.14
2019-03-03T01:04:23.351Z,94229.30
2019-03-03T01:06:53.675Z,94240.36
2019-03-03T01:09:37.599Z,94241.36
2019-03-03T01:12:08.158Z,94233.78
2019-03-03T01:14:39.788Z,94232.67
2019-03-03T01:17:12.789Z,94223.20
2019-03-03T01:19:49.056Z,94223.14
2019-03-03T01:22:34.881Z,94232.14
2019-03-03T01:25:04.348Z,94229.72
2019-03-03T01:27:33.032Z,94221.38
2019-03-03T01:30:01.721Z,94220.22
2019-03-03T01:32:30.505Z,94217.59
2019-03-03T01:34:59.296Z,94217.59
2019-03-03T01:37:27.981Z,94222.47
2019-03-03T01:39:56.666Z,94228.89
2019-03-03T01:42:25.353Z,94229.19
2019-03-03T01:44:54.145Z,94232.09
2019-03-03T01:47:22.933Z,94226.47
2019-03-03T01:49:51.620Z,94218.33
2019-03-03T01:52:20.314Z,94213.52
2019-03-03T01:54:48.996Z,94219.99
2019-03-03T01:57:17.795Z,94219.14
2019-03-03T01:59:46.573Z,94222.95
2019-03-03T02:02:15.363Z,94217.17
2019-03-03T02:04:44.149Z,94210.86
2019-03-03T02:07:12.938Z,94208.98
2019-03-03T02:09:41.829Z,94207.72
2019-03-03T02:12:10.614Z,94210.28
2019-03-03T02:14:39.514Z,94212.51
2019-03-03T02:17:09.223Z,94215.55
2019-03-03T02:19:38.024Z,94208.22
2019-03-03T02:22:06.862Z,94209.97
2019-03-03T02:24:35.890Z,94205.98
2019-03-03T02:27:04.578Z,94207.23
2019-03-03T02:29:33.267Z,94215.41
2019-03-03T02:32:03.706Z,94204.53
2019-03-03T02:34:32.403Z,94203.09
2019-03-03T02:37:01.187Z,94207.72
2019-03-03T02:39:29.960Z,94205.84
2019-03-03T02:41:58.600Z,94196.91
2019-03-03T02:44:27.328Z,94200.06
2019-03-03T02:46:55.966Z,94195.88
2019-03-03T02:49:24.709Z,94186.27
2019-03-03T02:51:53.403Z,94187.34
2019-03-03T02:54:22.181Z,94188.45
2019-03-03T02:56:50.864Z,94179.85
2019-03-03T02:59:19.556Z,94179.83
2019-03-03T03:01:49.777Z,94184.35
2019-03-03T03:04:18.559Z,94181.69
2019-03-03T03:07:00.773Z,94178.25
2019-03-03T03:09:31.092Z,94185.05
2019-03-03T03:12:13.712Z,94184.03
2019-03-03T03:14:46.863Z,94178.95
2019-03-03T03:17:29.237Z,94179.22
2019-03-03T03:20:15.710Z,94173.20
2019-03-03T03:22:46.028Z,94168.70
2019-03-03T03:25:25.287Z,94173.14
2019-03-03T03:28:01.629Z,94172.23
2019-03-03T03:30:40.872Z,94169.52
2019-03-03T03:33:20.422Z,94165.45
2019-03-03T03:35:56.873Z,94167.99
2019-03-03T03:38:33.136Z,94175.25
2019-03-03T03:41:06.375Z,94169.78
2019-03-03T03:43:36.649Z,94173.78
2019-03-03T03:46:19.164Z,94177.80
2019-03-03T03:48:55.143Z,94172.35
2019-03-03T03:51:28.426Z,94167.24
2019-03-03T03:53:58.684Z,94173.97
2019-03-03T03:56:35.217Z,94173.00
2019-03-03T03:59:05.378Z,94165.72
2019-03-03T04:01:35.659Z,94169.16
2019-03-03T04:04:11.729Z,94165.48
2019-03-03T04:06:42.055Z,94168.12
2019-03-03T04:09:28.669Z,94169.02
2019-03-03T04:12:01.648Z,94169.13
2019-03-03T04:14:49.182Z,94177.24
2019-03-03T04:17:35.471Z,94176.85
2019-03-03T04:20:07.434Z,94181.33
2019-03-03T04:22:53.838Z,94173.63
2019-03-03T04:25:26.763Z,94176.17
2019-03-03T04:28:15.275Z,94173.75
2019-03-03T04:30:45.471Z,94181.28
2019-03-03T04:33:27.706Z,94191.11
2019-03-03T04:36:07.241Z,94193.53
2019-03-03T04:38:49.432Z,94191.98
2019-03-03T04:41:35.954Z,94195.83
2019-03-03T04:44:06.169Z,94197.43
2019-03-03T04:46:45.718Z,94195.78
2019-03-03T04:49:18.803Z,94200.02
2019-03-03T04:51:51.791Z,94194.73
2019-03-03T04:54:40.344Z,94199.36
2019-03-03T04:57:19.578Z,94197.38
2019-03-03T04:59:53.074Z,94205.49
2019-03-03T05:02:23.396Z,94210.50
2019-03-03T05:04:56.589Z,94199.80
2019-03-03T05:07:32.855Z,94203.72
2019-03-03T05:10:09.115Z,94201.08
2019-03-03T05:12:45.078Z,94205.02
2019-03-03T05:15:21.138Z,94209.02
2019-03-03T05:17:51.355Z,94205.65
2019-03-03T05:20:20.098Z,94207.27
2019-03-03T05:22:48.836Z,94214.88
2019-03-03T05:25:17.624Z,94209.12
2019-03-03T05:27:46.313Z,94210.55
2019-03-03T05:30:15.508Z,94210.17
2019-03-03T05:32:44.295Z,94217.86
2019-03-03T05:35:13.245Z,94213.89
2019-03-03T05:37:41.976Z,94219.31
2019-03-03T05:40:10.676Z,94215.13
2019-03-03T05:42:39.350Z,94210.22
2019-03-03T05:45:08.613Z,94209.90
2019-03-03T05:47:37.304Z,94207.48
2019-03-03T05:50:07.057Z,94211.33
2019-03-03T05:52:35.839Z,94212.41
2019-03-03T05:55:06.160Z,94208.68
2019-03-03T05:57:34.824Z,94215.77
2019-03-03T06:00:04.234Z,94218.03
2019-03-03T06:02:32.950Z,94210.87
2019-03-03T06:05:02.861Z,94208.62
2019-03-03T06:07:31.465Z,94216.23
2019-03-03T06:10:00.299Z,94221.00
2019-03-03T06:12:29.227Z,94226.84
2019-03-03T06:14:57.844Z,94222.97
2019-03-03T06:17:26.565Z,94224.81
2019-03-03T06:19:55.239Z,94228.17
2019-03-03T06:22:23.891Z,94226.66
2019-03-03T06:24:52.580Z,94223.77
2019-03-03T06:27:21.195Z,94236.44
2019-03-03T06:29:49.865Z,94234.17
2019-03-03T06:32:18.686Z,94233.47
2019-03-03T06:34:47.264Z,94230.08
2019-03-03T06:37:15.959Z,94231.20
2019-03-03T06:39:44.700Z,94229.27
2019-03-03T06:42:13.393Z,94238.83
2019-03-03T06:44:43.582Z,94240.55
2019-03-03T06:47:12.361Z,94246.81
2019-03-03T06:49:41.320Z,94235.47
2019-03-03T06:52:09.940Z,94242.12
2019-03-03T06:54:40.677Z,94248.02
2019-03-03T06:57:09.059Z,94249.31
2019-03-03T06:59:37.686Z,94258.33
2019-03-03T07:02:06.412Z,94253.34
2019-03-03T07:04:35.105Z,94246.80
2019-03-03T07:07:03.726Z,94255.09
2019-03-03T07:09:32.411Z,94245.98
2019-03-03T07:12:01.086Z,94252.67
2019-03-03T07:14:29.816Z,94239.72
2019-03-03T07:16:59.676Z,94245.31
2019-03-03T07:19:28.678Z,94234.15
2019-03-03T07:21:57.461Z,94240.98
2019-03-03T07:24:26.098Z,94242.08
2019-03-03T07:26:54.931Z,94240.48
2019-03-03T07:29:24.030Z,94242.66
2019-03-03T07:31:52.817Z,94244.88
2019-03-03T07:34:21.918Z,94245.41
2019-03-03T07:36:50.705Z,94248.65
2019-03-03T07:39:19.593Z,94252.16
2019-03-03T07:41:53.012Z,94255.18
2019-03-03T07:44:23.319Z,94260.02
2019-03-03T07:46:52.000Z,94273.00
2019-03-03T07:49:20.729Z,94261.30
2019-03-03T07:51:49.477Z,94259.12
2019-03-03T07:54:18.367Z,94261.87
2019-03-03T07:56:47.162Z,94266.36
2019-03-03T07:59:16.144Z,94263.33
2019-03-03T08:01:44.838Z,94260.89
2019-03-03T08:04:13.539Z,94260.59
2019-03-03T08:06:42.518Z,94252.64
2019-03-03T08:09:11.307Z,94247.45
2019-03-03T08:11:40.215Z,94246.27
2019-03-03T08:14:08.882Z,94250.16
2019-03-03T08:16:37.679Z,94254.72
2019-03-03T08:19:06.361Z,94258.81
2019-03-03T08:21:36.580Z,94263.78
2019-03-03T08:24:05.392Z,94257.44
2019-03-03T08:26:34.170Z,94255.52
2019-03-03T08:29:02.858Z,94252.80
2019-03-03T08:31:31.713Z,94252.70
2019-03-03T08:34:02.743Z,94248.66
2019-03-03T08:36:31.464Z,94246.08
2019-03-03T08:39:00.361Z,94248.45
2019-03-03T08:41:29.450Z,94245.52
2019-03-03T08:44:01.024Z,94243.50
2019-03-03T08:46:46.234Z,94241.88
2019-03-03T08:49:35.421Z,94240.53
2019-03-03T08:52:05.685Z,94238.03
2019-03-03T08:54:39.149Z,94228.00
2019-03-03T08:57:15.590Z,94225.44
2019-03-03T08:59:52.065Z,94215.70
2019-03-03T09:02:28.181Z,94218.05
2019-03-03T09:05:17.330Z,94222.02
2019-03-03T09:07:59.158Z,94221.73
2019-03-03T09:10:29.476Z,94223.28
2019-03-03T09:12:59.776Z,94224.54
2019-03-03T09:15:41.769Z,94220.56
2019-03-03T09:18:14.730Z,94227.42
2019-03-03T09:20:44.933Z,94227.13
2019-03-03T09:23:27.239Z,94224.02
2019-03-03T09:26:00.316Z,94232.65
2019-03-03T09:28:33.634Z,94225.62
2019-03-03T09:31:08.710Z,94221.57
2019-03-03T09:33:49.509Z,94213.73
2019-03-03T09:36:22.645Z,94210.48
2019-03-03T09:39:05.675Z,94208.80
2019-03-03T09:41:54.371Z,94202.77
2019-03-03T09:44:42.912Z,94203.98
2019-03-03T09:47:13.325Z,94201.00
2019-03-03T09:49:46.615Z,94204.45
2019-03-03T09:52:17.059Z,94206.34
2019-03-03T09:54:50.480Z,94202.58
2019-03-03T09:57:40.216Z,94195.22
2019-03-03T10:00:18.673Z,94203.63
2019-03-03T10:02:51.897Z,94198.14
2019-03-03T10:05:25.450Z,94183.36
2019-03-03T10:08:14.390Z,94176.19
2019-03-03T10:10:47.346Z,94172.03
2019-03-03T10:13:23.597Z,94163.05
2019-03-03T10:15:56.881Z,94167.76
2019-03-03T10:18:28.565Z,94157.02
2019-03-03T10:20:58.815Z,94145.97
2019-03-03T10:26:36.334Z,94143.05
2019-03-03T10:32:06.905Z,94135.67
2019-03-03T10:34:44.617Z,94131.80
2019-03-03T10:37:14.840Z,94123.69
2019-03-03T10:39:45.116Z,94118.55
2019-03-03T10:42:20.923Z,94114.98
2019-03-03T10:44:51.171Z,94107.66
2019-03-03T10:47:21.386Z,94110.83
2019-03-03T10:49:57.504Z,94106.34
2019-03-03T10:52:36.582Z,94103.05
2019-03-03T10:55:11.409Z,94104.80
2019-03-03T10:57:44.613Z,94098.09
2019-03-03T11:00:35.325Z,94096.97
2019-03-03T11:03:23.343Z,94102.30
2019-03-03T11:06:09.859Z,94099.03
2019-03-03T11:08:40.194Z,94091.06
2019-03-03T11:11:10.559Z,94086.69
2019-03-03T11:13:41.343Z,94084.00
2019-03-03T11:16:17.689Z,94074.56
2019-03-03T11:18:55.760Z,94069.09
2019-03-03T11:21:22.901Z,94071.69
2019-03-03T11:23:57.370Z,94064.14
2019-03-03T11:26:30.573Z,94054.44
2019-03-03T11:29:03.983Z,94054.40
2019-03-03T11:31:50.563Z,94049.39
2019-03-03T11:34:20.765Z,94056.61
2019-03-03T11:36:57.273Z,94044.11
2019-03-03T11:39:27.592Z,94045.52
2019-03-03T11:42:00.594Z,94042.89
2019-03-03T11:44:31.299Z,94050.64
2019-03-03T11:47:02.871Z,94046.73
2019-03-03T11:49:51.894Z,94045.39
2019-03-03T11:52:27.766Z,94047.53
2019-03-03T11:54:57.961Z,94041.78
2019-03-03T11:57:46.123Z,94037.45
2019-03-03T12:00:16.385Z,94036.55
2019-03-03T12:02:54.199Z,94023.02
2019-03-03T12:05:24.624Z,94012.56
2019-03-03T12:08:10.999Z,94001.47
2019-03-03T12:10:59.423Z,94007.64
2019-03-03T12:13:32.454Z,94003.69
2019-03-03T12:16:11.555Z,93988.22
2019-03-03T12:18:47.637Z,93990.14
2019-03-03T12:21:35.878Z,93983.03
2019-03-03T12:24:08.923Z,93981.58
2019-03-03T12:26:54.279Z,93974.28
2019-03-03T12:29:30.641Z,93973.79
2019-03-03T12:32:03.898Z,93975.80
2019-03-03T12:34:39.995Z,93972.41
2019-03-03T12:37:24.447Z,93961.31
2019-03-03T12:40:10.041Z,93966.83
2019-03-03T12:42:46.519Z,93966.29
2019-03-03T12:45:36.148Z,93957.63
2019-03-03T12:48:09.503Z,93961.26
2019-03-03T12:50:56.112Z,93959.34
2019-03-03T12:53:28.775Z,93959.00
2019-03-03T12:55:59.014Z,93963.84
2019-03-03T12:58:38.452Z,93950.13
2019-03-03T13:01:25.345Z,93950.68
2019-03-03T13:04:01.819Z,93959.32
2019-03-03T13:06:32.141Z,93970.31
2019-03-03T13:09:14.125Z,93960.02
2019-03-03T13:11:59.679Z,93954.01
2019-03-03T13:14:33.500Z,93944.25
2019-03-03T13:17:23.028Z,93934.34
2019-03-03T13:19:56.231Z,93940.00
2019-03-03T13:22:36.712Z,93932.55
2019-03-03T13:25:12.016Z,93931.61
2019-03-03T13:27:51.403Z,93925.63
2019-03-03T13:30:23.798Z,93922.44
2019-03-03T13:32:53.581Z,93920.02
2019-03-03T13:35:40.304Z,93915.02
2019-03-03T13:38:28.801Z,93900.66
2019-03-03T13:41:14.098Z,93899.80
2019-03-03T13:43:43.228Z,93896.55
2019-03-03T13:46:12.460Z,93894.37
2019-03-03T13:48:43.377Z,93893.22
2019-03-03T13:51:14.589Z,93884.41
2019-03-03T13:53:43.315Z,93892.89
2019-03-03T13:56:12.034Z,93888.68
2019-03-03T13:58:40.727Z,93879.80
2019-03-03T14:01:09.763Z,93879.34
2019-03-03T14:03:38.379Z,93874.73
2019-03-03T14:06:07.120Z,93868.28
2019-03-03T14:08:35.755Z,93865.70
2019-03-03T14:11:04.453Z,93867.01
2019-03-03T14:13:33.105Z,93865.43
2019-03-03T14:16:01.902Z,93865.04
2019-03-03T14:18:30.587Z,93859.05
2019-03-03T14:20:59.324Z,93859.91
2019-03-03T14:23:28.085Z,93863.71
2019-03-03T14:25:59.029Z,93855.40
2019-03-03T14:28:28.588Z,93859.00
2019-03-03T14:30:57.449Z,93857.81
2019-03-03T14:33:26.506Z,93859.14
2019-03-03T14:35:55.264Z,93857.91
2019-03-03T14:38:24.022Z,93861.33
2019-03-03T14:40:52.810Z,93858.23
2019-03-03T14:43:22.594Z,93860.97
2019-03-03T14:45:51.316Z,93860.38
2019-03-03T14:48:20.015Z,93856.23
2019-03-03T14:50:54.285Z,93858.20
2019-03-03T14:53:23.268Z,93856.12
2019-03-03T14:55:51.935Z,93850.16
2019-03-03T14:58:20.639Z,93846.34
2019-03-03T15:00:51.127Z,93843.82
2019-03-03T15:03:19.870Z,93830.84
2019-03-03T15:05:48.741Z,93836.11
2019-03-03T15:08:18.827Z,93840.52
2019-03-03T15:10:48.629Z,93836.33
2019-03-03T15:13:17.482Z,93837.17
2019-03-03T15:15:46.127Z,93836.77
2019-03-03T15:18:15.088Z,93828.99
2019-03-03T15:20:43.945Z,93831.72
2019-03-03T15:23:17.108Z,93832.55
2019-03-03T15:25:46.318Z,93830.13
2019-03-03T15:28:15.236Z,93824.11
2019-03-03T15:30:43.938Z,93832.20
2019-03-03T15:33:14.971Z,93821.70
2019-03-03T15:35:44.092Z,93822.14
2019-03-03T15:38:12.705Z,93821.84
2019-03-03T15:40:43.011Z,93818.11
2019-03-03T15:43:13.186Z,93828.59
2019-03-03T15:45:41.833Z,93827.67
2019-03-03T15:48:18.507Z,93820.61
2019-03-03T15:50:47.361Z,93821.13
2019-03-03T15:53:16.043Z,93815.80
2019-03-03T15:55:44.695Z,93807.56
2019-03-03T15:58:13.376Z,93808.86
2019-03-03T16:00:44.823Z,93810.51
2019-03-03T16:03:14.055Z,93802.23
2019-03-03T16:05:42.759Z,93800.00
2019-03-03T16:08:11.396Z,93804.27
2019-03-03T16:10:40.182Z,93795.11
2019-03-03T16:13:08.873Z,93792.73
2019-03-03T16:15:39.182Z,93804.44
2019-03-03T16:18:07.880Z,93802.19
2019-03-03T16:20:36.544Z,93792.34
2019-03-03T16:23:05.329Z,93783.63
2019-03-03T16:25:34.404Z,93785.94
2019-03-03T16:28:03.086Z,93785.50
2019-03-03T16:30:31.694Z,93785.93
2019-03-03T16:33:00.425Z,93781.59
2019-03-03T16:35:29.045Z,93780.59
2019-03-03T16:37:57.848Z,93781.16
2019-03-03T16:40:27.050Z,93779.20
2019-03-03T16:42:58.735Z,93782.11
2019-03-03T16:45:27.475Z,93785.31
2019-03-03T16:47:59.195Z,93782.70
2019-03-03T16:50:27.819Z,93781.27
2019-03-03T16:52:56.451Z,93780.13
2019-03-03T16:55:25.134Z,93779.23
2019-03-03T16:57:53.837Z,93781.55
2019-03-03T17:00:23.748Z,93775.68
2019-03-03T17:02:52.480Z,93783.81
2019-03-03T17:05:23.444Z,93778.42
2019-03-03T17:07:53.526Z,93786.10
2019-03-03T17:10:23.778Z,93785.55
2019-03-03T17:12:54.073Z,93784.48
2019-03-03T17:15:27.272Z,93781.39
2019-03-03T17:17:55.975Z,93784.53
2019-03-03T17:20:24.627Z,93786.78
2019-03-03T17:22:53.558Z,93784.53
2019-03-03T17:25:25.264Z,93784.73
2019-03-03T17:27:54.159Z,93785.53
2019-03-03T17:30:25.387Z,93790.70
2019-03-03T17:32:55.609Z,93786.34
2019-03-03T17:35:26.156Z,93783.63
2019-03-03T17:37:56.731Z,93791.47
2019-03-03T17:40:30.649Z,93787.09
2019-03-03T17:43:02.578Z,93792.27
2019-03-03T17:45:33.103Z,93796.22
2019-03-03T17:48:02.057Z,93795.23
2019-03-03T17:50:32.795Z,93792.05
2019-03-03T17:53:01.859Z,93804.75
2019-03-03T17:55:30.644Z,93798.79
2019-03-03T17:57:59.354Z,93795.92
2019-03-03T18:00:46.258Z,93801.66
2019-03-03T18:03:15.366Z,93799.95
2019-03-03T18:05:44.092Z,93788.98
2019-03-03T18:08:13.011Z,93801.35
2019-03-03T18:10:41.847Z,93800.98
2019-03-03T18:13:11.276Z,93794.03
2019-03-03T18:15:40.192Z,93803.64
2019-03-03T18:18:09.144Z,93807.91
2019-03-03T18:20:38.319Z,93793.94
2019-03-03T18:23:10.004Z,93784.33
2019-03-03T18:25:40.304Z,93804.83
2019-03-03T18:28:10.249Z,93796.62
2019-03-03T18:30:40.552Z,93796.27
2019-03-03T18:33:09.777Z,93798.55
2019-03-03T18:35:38.854Z,93792.92
2019-03-03T18:38:08.997Z,93798.29
2019-03-03T18:40:37.863Z,93785.88
2019-03-03T18:43:07.229Z,93791.72
2019-03-03T18:45:36.055Z,93786.86
2019-03-03T18:48:05.177Z,93790.59
2019-03-03T18:50:33.979Z,93790.13
2019-03-03T18:53:02.634Z,93787.03
2019-03-03T18:55:31.397Z,93779.39
2019-03-03T18:58:01.926Z,93780.13
2019-03-03T19:00:32.288Z,93782.91
2019-03-03T19:03:01.409Z,93785.58
2019-03-03T19:05:32.991Z,93778.02
2019-03-03T19:08:03.350Z,93780.70
2019-03-03T19:10:37.907Z,93784.92
2019-03-03T19:13:06.746Z,93782.70
2019-03-03T19:15:35.540Z,93781.00
2019-03-03T19:18:06.926Z,93780.73
2019-03-03T19:20:36.483Z,93773.32
2019-03-03T19:23:05.488Z,93769.98
2019-03-03T19:25:34.598Z,93774.80
2019-03-03T19:28:06.771Z,93771.66
2019-03-03T19:30:37.436Z,93773.48
2019-03-03T19:33:18.700Z,93773.66
2019-03-03T19:35:47.885Z,93771.35
2019-03-03T19:38:16.783Z,93767.80
2019-03-03T19:40:46.230Z,93765.52
2019-03-03T19:43:16.483Z,93762.73
2019-03-03T19:45:53.068Z,93767.75
2019-03-03T19:48:22.102Z,93758.03
2019-03-03T19:50:50.836Z,93760.09
2019-03-03T19:53:21.264Z,93757.38
2019-03-03T19:55:50.169Z,93754.89
2019-03-03T19:58:22.152Z,93765.38
2019-03-03T20:00:51.123Z,93759.16
2019-03-03T20:03:21.743Z,93757.03
2019-03-03T20:05:51.635Z,93756.78
2019-03-03T20:08:20.696Z,93764.37
2019-03-03T20:10:49.464Z,93765.80
2019-03-03T20:13:18.215Z,93756.12
2019-03-03T20:15:47.872Z,93764.81
2019-03-03T20:18:18.762Z,93761.14
2019-03-03T20:20:48.694Z,93760.28
2019-03-03T20:23:19.348Z,93758.25
2019-03-03T20:25:50.784Z,93763.09
2019-03-03T20:28:21.845Z,93750.06
2019-03-03T20:30:54.417Z,93750.47
2019-03-03T20:33:25.406Z,93755.21
2019-03-03T20:35:54.172Z,93754.09
2019-03-03T20:38:25.774Z,93744.14
2019-03-03T20:40:56.794Z,93748.36
2019-03-03T20:43:28.027Z,93747.12
2019-03-03T20:45:56.708Z,93740.77
2019-03-03T20:48:25.641Z,93742.41
2019-03-03T20:50:55.344Z,93745.13
2019-03-03T20:53:24.079Z,93746.44
2019-03-03T20:55:53.028Z,93742.73
2019-03-03T20:58:21.717Z,93744.67
2019-03-03T21:00:50.511Z,93740.81
2019-03-03T21:03:21.678Z,93737.34
2019-03-03T21:05:50.120Z,93738.27
2019-03-03T21:08:18.799Z,93732.92
2019-03-03T21:10:47.441Z,93727.13
2019-03-03T21:13:16.188Z,93727.06
2019-03-03T21:15:45.073Z,93716.36
2019-03-03T21:18:14.277Z,93708.23
2019-03-03T21:20:43.069Z,93709.61
2019-03-03T21:23:14.926Z,93703.88
2019-03-03T21:25:44.628Z,93714.63
2019-03-03T21:28:13.317Z,93708.90
2019-03-03T21:30:42.012Z,93710.22
2019-03-03T21:33:12.065Z,93702.53
2019-03-03T21:35:40.707Z,93707.73
2019-03-03T21:38:10.955Z,93710.40
2019-03-03T21:40:39.711Z,93710.40
2019-03-03T21:43:09.786Z,93713.85
2019-03-03T21:45:38.417Z,93714.92
2019-03-03T21:48:07.320Z,93710.16
2019-03-03T21:50:35.937Z,93707.41
2019-03-03T21:53:04.691Z,93706.71
2019-03-03T21:55:36.241Z,93693.45
2019-03-03T21:58:05.447Z,93687.31
2019-03-03T22:00:42.110Z,93686.91
2019-03-03T22:03:10.887Z,93687.80
2019-03-03T22:05:39.568Z,93676.13
2019-03-03T22:08:08.261Z,93681.16
2019-03-03T22:10:37.075Z,93678.38
2019-03-03T22:13:10.909Z,93673.33
2019-03-03T22:15:39.819Z,93673.88
2019-03-03T22:18:08.699Z,93674.92
2019-03-03T22:20:37.406Z,93673.20
2019-03-03T22:23:06.062Z,93674.63
2019-03-03T22:25:34.804Z,93677.67
2019-03-03T22:28:03.403Z,93672.55
2019-03-03T22:30:32.210Z,93679.27
2019-03-03T22:33:00.987Z,93673.16
2019-03-03T22:35:29.612Z,93678.28
2019-03-03T22:37:59.896Z,93682.00
2019-03-03T22:40:28.582Z,93683.78
2019-03-03T22:42:57.520Z,93677.36
2019-03-03T22:45:26.140Z,93683.00
2019-03-03T22:47:54.816Z,93690.36
2019-03-03T22:50:23.453Z,93691.39
2019-03-03T22:52:52.135Z,93689.13
2019-03-03T22:55:21.746Z,93685.73
2019-03-03T22:57:50.416Z,93685.67
2019-03-03T23:00:55.227Z,93683.21
2019-03-03T23:03:32.935Z,93688.34
2019-03-03T23:06:28.851Z,93684.75
2019-03-03T23:09:12.766Z,93682.28
2019-03-03T23:12:08.514Z,93677.06
2019-03-03T23:14:56.759Z,93679.52
2019-03-03T23:17:34.371Z,93678.16
2019-03-03T23:20:30.180Z,93671.73
2019-03-03T23:23:07.834Z,93664.44
2019-03-03T23:25:53.666Z,93665.53
2019-03-03T23:28:22.336Z,93666.34
2019-03-03T23:30:51.340Z,93669.56
2019-03-03T23:33:20.237Z,93665.45
2019-03-03T23:35:49.248Z,93663.69
2019-03-03T23:38:18.016Z,93663.38
2019-03-03T23:40:46.705Z,93666.15
2019-03-03T23:43:15.383Z,93656.44
2019-03-03T23:45:44.071Z,93662.44
2019-03-03T23:48:13.475Z,93657.17
2019-03-03T23:50:42.164Z,93656.47
2019-03-03T23:53:10.954Z,93657.61
2019-03-03T23:55:40.969Z,93658.33
2019-03-03T23:58:11.417Z,93660.23
